createdAt,value
2022-09-06T00:02:22.067Z,21.25
2022-09-06T00:04:50.608Z,21.18
2022-09-06T00:07:18.582Z,21.16
2022-09-06T00:09:46.830Z,21.15
2022-09-06T00:12:16.216Z,21.12
2022-09-06T00:14:44.218Z,21.10
2022-09-06T00:17:12.597Z,21.12
2022-09-06T00:19:40.628Z,21.05
2022-09-06T00:22:08.520Z,20.97
2022-09-06T00:24:37.259Z,20.95
2022-09-06T00:27:05.693Z,20.92
2022-09-06T00:29:35.361Z,20.88
2022-09-06T00:32:03.874Z,20.84
2022-09-06T00:34:32.078Z,20.80
2022-09-06T00:37:00.126Z,20.79
2022-09-06T00:39:28.580Z,20.78
2022-09-06T00:41:56.967Z,20.79
2022-09-06T00:44:24.940Z,20.79
2022-09-06T00:46:55.452Z,20.75
2022-09-06T00:49:29.316Z,20.76
2022-09-06T00:52:02.789Z,20.54
2022-09-06T00:54:31.194Z,20.43
2022-09-06T00:56:59.449Z,20.40
2022-09-06T00:59:28.438Z,20.43
2022-09-06T01:01:58.202Z,20.39
2022-09-06T01:04:26.770Z,20.40
2022-09-06T01:07:04.254Z,20.37
2022-09-06T01:09:47.714Z,20.37
2022-09-06T01:12:28.342Z,20.39
2022-09-06T01:15:06.974Z,20.35
2022-09-06T01:17:45.045Z,20.35
2022-09-06T01:20:30.292Z,20.35
2022-09-06T01:23:18.421Z,20.32
2022-09-06T01:25:54.777Z,20.33
2022-09-06T01:28:42.090Z,20.35
2022-09-06T01:31:25.663Z,20.32
2022-09-06T01:34:09.062Z,20.30
2022-09-06T01:36:54.403Z,20.26
2022-09-06T01:39:32.628Z,20.22
2022-09-06T01:42:05.904Z,20.24
2022-09-06T01:44:36.291Z,20.27
2022-09-06T01:47:12.261Z,20.27
2022-09-06T01:49:48.197Z,20.29
2022-09-06T01:52:19.480Z,20.32
2022-09-06T01:54:56.758Z,20.34
2022-09-06T01:57:33.984Z,20.40
2022-09-06T02:00:09.243Z,20.44
2022-09-06T02:02:47.899Z,20.45
2022-09-06T02:05:21.660Z,20.42
2022-09-06T02:07:50.775Z,20.43
2022-09-06T02:10:24.857Z,20.46
2022-09-06T02:12:55.250Z,20.54
2022-09-06T02:15:27.438Z,20.37
2022-09-06T02:17:58.470Z,20.32
2022-09-06T02:20:28.697Z,20.19
2022-09-06T02:22:57.775Z,20.23
2022-09-06T02:25:28.141Z,20.22
2022-09-06T02:27:56.667Z,20.23
2022-09-06T02:30:26.477Z,20.28
2022-09-06T02:32:59.134Z,20.18
2022-09-06T02:35:27.466Z,19.68
2022-09-06T02:37:56.397Z,19.48
2022-09-06T02:40:24.628Z,19.28
2022-09-06T02:42:54.049Z,19.16
2022-09-06T02:45:22.044Z,19.14
2022-09-06T02:47:51.352Z,19.16
2022-09-06T02:50:19.243Z,19.21
2022-09-06T02:52:47.191Z,19.19
2022-09-06T02:55:15.562Z,19.28
2022-09-06T02:57:43.864Z,19.25
2022-09-06T03:00:12.852Z,19.39
2022-09-06T03:02:40.840Z,19.42
2022-09-06T03:05:11.173Z,19.44
2022-09-06T03:07:39.190Z,19.51
2022-09-06T03:10:07.979Z,19.55
2022-09-06T03:12:35.906Z,19.60
2022-09-06T03:15:04.246Z,19.64
2022-09-06T03:17:32.362Z,19.69
2022-09-06T03:20:00.784Z,19.69
2022-09-06T03:22:30.042Z,19.61
2022-09-06T03:24:58.241Z,19.61
2022-09-06T03:27:26.171Z,19.51
2022-09-06T03:29:54.187Z,19.45
2022-09-06T03:32:22.417Z,19.38
2022-09-06T03:34:50.406Z,19.40
2022-09-06T03:37:19.476Z,19.25
2022-09-06T03:39:48.808Z,19.16
2022-09-06T03:42:16.856Z,19.07
2022-09-06T03:44:44.783Z,19.02
2022-09-06T03:47:15.561Z,19.07
2022-09-06T03:49:46.858Z,19.13
2022-09-06T03:52:15.333Z,19.10
2022-09-06T03:54:43.202Z,19.17
2022-09-06T03:57:12.488Z,19.21
2022-09-06T03:59:40.444Z,19.28
2022-09-06T04:02:08.502Z,19.31
2022-09-06T04:04:36.632Z,19.42
2022-09-06T04:07:04.620Z,19.37
2022-09-06T04:09:32.643Z,19.34
2022-09-06T04:12:00.786Z,19.29
2022-09-06T04:14:30.159Z,19.28
2022-09-06T04:16:58.394Z,19.24
2022-09-06T04:19:26.424Z,19.17
2022-09-06T04:21:54.384Z,19.19
2022-09-06T04:24:22.407Z,19.13
2022-09-06T04:26:50.370Z,19.07
2022-09-06T04:29:18.329Z,18.99
2022-09-06T04:31:47.796Z,19.01
2022-09-06T04:34:16.449Z,19.00
2022-09-06T04:36:48.135Z,18.84
2022-09-06T04:39:16.449Z,18.83
2022-09-06T04:41:44.380Z,18.87
2022-09-06T04:44:12.355Z,18.80
2022-09-06T04:46:42.758Z,18.64
2022-09-06T04:49:12.084Z,18.59
2022-09-06T04:51:40.315Z,18.55
2022-09-06T04:54:08.278Z,18.54
2022-09-06T04:56:36.630Z,18.57
2022-09-06T04:59:04.744Z,18.59
2022-09-06T05:01:32.923Z,18.55
2022-09-06T05:04:01.255Z,18.56
2022-09-06T05:06:32.118Z,18.58
2022-09-06T05:09:00.102Z,18.61
2022-09-06T05:11:28.136Z,18.66
2022-09-06T05:13:56.110Z,18.74
2022-09-06T05:16:24.185Z,18.74
2022-09-06T05:18:52.218Z,18.77
2022-09-06T05:21:20.217Z,18.84
2022-09-06T05:23:49.825Z,18.90
2022-09-06T05:26:17.892Z,18.98
2022-09-06T05:28:45.932Z,19.00
2022-09-06T05:31:28.497Z,19.01
2022-09-06T05:33:57.646Z,19.00
2022-09-06T05:36:26.192Z,19.02
2022-09-06T05:38:56.867Z,19.07
2022-09-06T05:41:25.574Z,19.10
2022-09-06T05:43:53.842Z,19.11
2022-09-06T05:46:22.098Z,19.14
2022-09-06T05:48:54.494Z,19.17
2022-09-06T05:51:22.459Z,19.21
2022-09-06T05:53:50.474Z,19.23
2022-09-06T05:56:22.599Z,19.24
2022-09-06T05:58:54.335Z,19.25
2022-09-06T06:01:23.905Z,19.28
2022-09-06T06:03:52.857Z,19.29
2022-09-06T06:06:21.785Z,19.28
2022-09-06T06:08:50.031Z,19.31
2022-09-06T06:11:19.535Z,19.29
2022-09-06T06:13:47.538Z,19.30
2022-09-06T06:16:16.922Z,19.35
2022-09-06T06:18:51.278Z,19.40
2022-09-06T06:21:22.229Z,19.45
2022-09-06T06:23:52.237Z,19.47
2022-09-06T06:26:21.796Z,19.47
2022-09-06T06:28:49.962Z,19.53
2022-09-06T06:31:19.416Z,19.55
2022-09-06T06:33:47.457Z,19.60
2022-09-06T06:36:23.334Z,19.65
2022-09-06T06:38:54.515Z,19.69
2022-09-06T06:41:25.337Z,19.79
2022-09-06T06:43:54.112Z,19.85
2022-09-06T06:46:22.980Z,19.91
2022-09-06T06:48:54.729Z,19.98
2022-09-06T06:51:25.844Z,20.08
2022-09-06T06:53:56.311Z,20.13
2022-09-06T06:56:27.367Z,20.17
2022-09-06T06:58:57.526Z,20.26
2022-09-06T07:01:27.034Z,20.32
2022-09-06T07:03:55.501Z,20.43
2022-09-06T07:09:13.773Z,20.66
2022-09-06T07:11:44.517Z,20.94
2022-09-06T07:14:14.584Z,21.09
2022-09-06T07:16:42.719Z,21.20
2022-09-06T07:22:02.887Z,21.60
2022-09-06T07:24:36.222Z,21.81
2022-09-06T07:29:53.577Z,21.87
2022-09-06T07:32:21.546Z,21.88
2022-09-06T07:34:49.458Z,21.92
2022-09-06T07:37:17.486Z,21.99
2022-09-06T07:39:45.703Z,22.13
2022-09-06T07:42:16.288Z,22.27
2022-09-06T07:44:44.610Z,22.40
2022-09-06T07:53:14.844Z,22.55
2022-09-06T07:55:43.672Z,22.55
2022-09-06T07:58:13.046Z,22.70
2022-09-06T08:00:41.624Z,22.81
2022-09-06T08:03:09.833Z,22.90
2022-09-06T08:11:17.918Z,23.49
2022-09-06T08:13:50.622Z,23.65
2022-09-06T08:16:20.140Z,23.90
2022-09-06T08:18:51.899Z,24.15
2022-09-06T08:21:20.324Z,24.46
2022-09-06T08:23:49.744Z,24.74
2022-09-06T08:26:21.071Z,24.98
2022-09-06T08:28:54.381Z,25.12
2022-09-06T08:31:22.451Z,25.32
2022-09-06T08:33:50.644Z,25.48
2022-09-06T08:36:19.013Z,25.73
2022-09-06T08:38:46.958Z,25.85
2022-09-06T08:41:24.294Z,25.97
2022-09-06T08:46:49.426Z,26.28
2022-09-06T08:49:17.737Z,26.41
2022-09-06T08:52:13.417Z,26.47
2022-09-06T08:54:42.557Z,26.49
2022-09-06T08:57:15.367Z,26.54
2022-09-06T08:59:44.791Z,26.58
2022-09-06T09:02:14.974Z,26.67
2022-09-06T09:04:45.946Z,26.78
2022-09-06T09:07:31.039Z,26.94
2022-09-06T09:09:59.811Z,27.11
2022-09-06T09:12:29.357Z,27.15
2022-09-06T09:15:03.442Z,27.30
2022-09-06T09:17:32.769Z,27.30
2022-09-06T09:20:00.678Z,27.31
2022-09-06T09:22:29.327Z,27.21
2022-09-06T09:24:59.586Z,27.13
2022-09-06T09:27:29.155Z,27.20
2022-09-06T09:32:51.953Z,27.22
2022-09-06T09:35:27.980Z,27.50
2022-09-06T09:38:09.501Z,27.77
2022-09-06T09:40:41.935Z,27.88
2022-09-06T09:43:15.518Z,27.73
2022-09-06T09:45:45.264Z,27.40
2022-09-06T09:48:22.431Z,27.10
2022-09-06T09:50:50.354Z,27.06
2022-09-06T09:53:21.069Z,27.21
2022-09-06T09:55:49.501Z,27.18
2022-09-06T09:58:21.977Z,27.14
2022-09-06T10:01:10.685Z,27.22
2022-09-06T10:09:19.824Z,27.60
2022-09-06T10:11:55.815Z,27.72
2022-09-06T10:14:28.431Z,27.58
2022-09-06T10:16:58.234Z,27.64
2022-09-06T10:19:39.725Z,27.74
2022-09-06T10:22:20.203Z,27.94
2022-09-06T10:25:08.258Z,28.04
2022-09-06T10:27:42.529Z,28.25
2022-09-06T10:30:14.592Z,28.26
2022-09-06T10:32:48.133Z,28.44
2022-09-06T10:35:23.987Z,28.50
2022-09-06T10:38:13.479Z,28.52
2022-09-06T10:40:48.293Z,28.70
2022-09-06T10:43:19.762Z,28.79
2022-09-06T10:45:55.969Z,28.83
2022-09-06T10:48:28.855Z,28.80
2022-09-06T10:50:59.286Z,28.64
2022-09-06T10:53:42.593Z,28.56
2022-09-06T10:56:12.816Z,28.60
2022-09-06T11:01:42.943Z,28.68
2022-09-06T11:04:20.459Z,28.72
2022-09-06T11:06:52.609Z,28.54
2022-09-06T11:09:26.664Z,28.53
2022-09-06T11:12:00.676Z,28.53
2022-09-06T11:14:28.903Z,28.45
2022-09-06T11:17:00.753Z,28.37
2022-09-06T11:19:33.256Z,28.34
2022-09-06T11:22:29.242Z,28.42
2022-09-06T11:25:31.663Z,28.46
2022-09-06T11:28:01.454Z,28.49
2022-09-06T11:30:30.268Z,28.60
2022-09-06T11:33:11.627Z,28.65
2022-09-06T11:35:42.234Z,28.63
2022-09-06T11:38:22.312Z,28.58
2022-09-06T11:40:56.082Z,28.41
2022-09-06T11:43:46.520Z,28.37
2022-09-06T11:46:48.587Z,28.36
2022-09-06T11:49:40.063Z,28.29
2022-09-06T11:52:41.765Z,28.23
2022-09-06T11:55:13.887Z,27.99
2022-09-06T11:57:42.806Z,27.98
2022-09-06T12:00:20.910Z,27.98
2022-09-06T12:02:49.014Z,28.09
2022-09-06T12:05:37.425Z,28.34
2022-09-06T12:08:33.310Z,28.57
2022-09-06T12:11:18.854Z,28.61
2022-09-06T12:14:06.134Z,28.43
2022-09-06T12:17:26.338Z,28.53
2022-09-06T12:20:06.423Z,28.79
2022-09-06T12:22:54.569Z,29.06
2022-09-06T12:25:52.635Z,29.20
2022-09-06T12:28:46.921Z,29.22
2022-09-06T12:31:38.434Z,29.18
2022-09-06T12:34:13.823Z,29.05
2022-09-06T12:36:55.809Z,28.92
2022-09-06T12:39:24.396Z,28.81
2022-09-06T12:41:55.215Z,28.69
2022-09-06T12:44:30.591Z,28.56
2022-09-06T12:47:04.613Z,28.48
2022-09-06T12:49:32.573Z,28.35
2022-09-06T12:52:12.237Z,28.26
2022-09-06T12:54:46.733Z,28.21
2022-09-06T12:57:18.308Z,28.17
2022-09-06T12:59:53.662Z,28.18
2022-09-06T13:02:26.594Z,28.00
2022-09-06T13:04:58.036Z,28.01
2022-09-06T13:07:27.200Z,27.94
2022-09-06T13:09:56.529Z,27.87
2022-09-06T13:12:27.384Z,27.86
2022-09-06T13:14:58.153Z,27.81
2022-09-06T13:17:28.537Z,27.71
2022-09-06T13:19:58.142Z,27.71
2022-09-06T13:22:44.205Z,27.66
2022-09-06T13:25:20.569Z,27.64
2022-09-06T13:27:51.188Z,27.66
2022-09-06T13:30:38.705Z,27.60
2022-09-06T13:33:07.957Z,27.63
2022-09-06T13:35:37.582Z,27.72
2022-09-06T13:38:33.096Z,27.81
2022-09-06T13:41:17.088Z,27.89
2022-09-06T13:43:47.651Z,27.94
2022-09-06T13:46:17.277Z,27.82
2022-09-06T13:48:45.385Z,27.87
2022-09-06T13:51:13.393Z,27.75
2022-09-06T13:53:41.245Z,27.74
2022-09-06T13:56:09.447Z,27.73
2022-09-06T13:58:37.365Z,27.73
2022-09-06T14:01:08.674Z,27.73
2022-09-06T14:03:39.260Z,27.70
2022-09-06T14:06:08.248Z,27.70
2022-09-06T14:09:02.945Z,27.63
2022-09-06T14:11:25.588Z,27.61
2022-09-06T14:13:53.581Z,27.66
2022-09-06T14:16:21.592Z,27.64
2022-09-06T14:18:51.993Z,27.61
2022-09-06T14:21:19.966Z,27.58
2022-09-06T14:23:51.005Z,27.57
2022-09-06T14:26:21.057Z,27.57
2022-09-06T14:28:49.411Z,27.55
2022-09-06T14:31:18.837Z,27.53
2022-09-06T14:33:46.721Z,27.47
2022-09-06T14:36:17.604Z,27.41
2022-09-06T14:38:46.445Z,27.38
2022-09-06T14:41:15.581Z,27.34
2022-09-06T14:43:44.832Z,27.30
2022-09-06T14:46:14.874Z,27.27
2022-09-06T14:48:43.749Z,27.24
2022-09-06T14:51:13.150Z,27.15
2022-09-06T14:53:43.575Z,27.08
2022-09-06T14:56:12.829Z,27.03
2022-09-06T14:58:41.885Z,27.01
2022-09-06T15:01:13.238Z,26.94
2022-09-06T15:03:42.811Z,26.92
2022-09-06T15:06:11.656Z,26.85
2022-09-06T15:08:39.741Z,26.78
2022-09-06T15:11:12.726Z,26.71
2022-09-06T15:13:43.294Z,26.73
2022-09-06T15:16:12.162Z,26.70
2022-09-06T15:18:40.073Z,26.62
2022-09-06T15:21:11.362Z,26.51
2022-09-06T15:23:39.677Z,26.46
2022-09-06T15:26:09.915Z,26.41
2022-09-06T15:28:39.040Z,26.33
2022-09-06T15:31:08.283Z,26.15
2022-09-06T15:33:37.697Z,26.03
2022-09-06T15:36:07.210Z,25.95
2022-09-06T15:38:36.044Z,25.66
2022-09-06T15:41:08.402Z,25.50
2022-09-06T15:43:41.753Z,25.39
2022-09-06T15:46:10.278Z,25.31
2022-09-06T15:48:42.443Z,25.32
2022-09-06T15:51:10.933Z,25.30
2022-09-06T15:53:38.910Z,25.24
2022-09-06T15:56:07.400Z,25.13
2022-09-06T15:58:35.628Z,25.05
2022-09-06T16:01:07.892Z,24.98
2022-09-06T16:03:40.391Z,24.86
2022-09-06T16:06:26.139Z,24.78
2022-09-06T16:08:59.877Z,24.79
2022-09-06T16:11:28.271Z,24.74
2022-09-06T16:13:56.656Z,24.67
2022-09-06T16:16:26.476Z,24.70
2022-09-06T16:18:54.413Z,24.58
2022-09-06T16:21:25.162Z,24.57
2022-09-06T16:23:57.804Z,24.56
2022-09-06T16:26:27.670Z,24.55
2022-09-06T16:28:56.036Z,24.47
2022-09-06T16:31:26.173Z,24.42
2022-09-06T16:33:54.432Z,24.42
2022-09-06T16:36:23.132Z,24.32
2022-09-06T16:38:51.527Z,24.30
2022-09-06T16:41:21.186Z,24.27
2022-09-06T16:43:50.168Z,24.17
2022-09-06T16:46:18.601Z,24.12
2022-09-06T16:48:53.192Z,24.07
2022-09-06T16:51:22.989Z,24.09
2022-09-06T16:53:51.291Z,24.12
2022-09-06T16:56:20.641Z,24.14
2022-09-06T16:58:51.571Z,24.15
2022-09-06T17:01:19.687Z,24.12
2022-09-06T17:03:48.294Z,24.10
2022-09-06T17:06:17.806Z,24.10
2022-09-06T17:08:46.300Z,24.11
2022-09-06T17:11:16.030Z,24.15
2022-09-06T17:13:45.506Z,24.20
2022-09-06T17:16:31.430Z,24.21
2022-09-06T17:19:01.333Z,24.21
2022-09-06T17:21:31.048Z,24.22
2022-09-06T17:24:04.143Z,24.19
2022-09-06T17:26:33.242Z,24.16
2022-09-06T17:29:01.563Z,24.10
2022-09-06T17:31:30.244Z,24.04
2022-09-06T17:33:59.660Z,23.93
2022-09-06T17:36:30.586Z,23.81
2022-09-06T17:39:07.891Z,23.72
2022-09-06T17:41:37.850Z,23.59
2022-09-06T17:44:06.754Z,23.50
2022-09-06T17:46:34.961Z,23.41
2022-09-06T17:49:04.709Z,23.39
2022-09-06T17:51:32.896Z,23.27
2022-09-06T17:54:01.365Z,23.16
2022-09-06T17:56:31.158Z,23.07
2022-09-06T17:59:00.148Z,22.99
2022-09-06T18:01:30.512Z,22.99
2022-09-06T18:03:59.462Z,22.92
2022-09-06T18:06:29.499Z,22.89
2022-09-06T18:08:59.619Z,22.80
2022-09-06T18:11:29.504Z,22.77
2022-09-06T18:14:00.434Z,22.72
2022-09-06T18:16:29.037Z,22.69
2022-09-06T18:18:58.649Z,22.67
2022-09-06T18:21:27.804Z,22.62
2022-09-06T18:23:55.916Z,22.61
2022-09-06T18:26:24.606Z,22.61
2022-09-06T18:28:54.062Z,22.59
2022-09-06T18:31:25.535Z,22.60
2022-09-06T18:33:55.652Z,22.57
2022-09-06T18:36:31.208Z,22.59
2022-09-06T18:39:02.736Z,22.52
2022-09-06T18:41:48.358Z,22.47
2022-09-06T18:44:19.537Z,22.41
2022-09-06T18:46:48.993Z,22.36
2022-09-06T18:49:17.522Z,22.27
2022-09-06T18:51:46.139Z,22.21
2022-09-06T18:54:14.611Z,22.13
2022-09-06T18:56:44.837Z,22.09
2022-09-06T18:59:15.983Z,22.06
2022-09-06T19:01:44.463Z,22.04
2022-09-06T19:04:14.329Z,21.99
2022-09-06T19:06:43.677Z,21.91
2022-09-06T19:09:14.043Z,21.92
2022-09-06T19:11:52.795Z,21.84
2022-09-06T19:14:22.018Z,21.90
2022-09-06T19:16:51.860Z,21.80
2022-09-06T19:19:23.467Z,21.85
2022-09-06T19:21:56.475Z,21.78
2022-09-06T19:24:28.170Z,21.83
2022-09-06T19:26:56.725Z,21.80
2022-09-06T19:29:25.281Z,21.79
2022-09-06T19:31:54.443Z,21.73
2022-09-06T19:34:24.290Z,21.77
2022-09-06T19:36:55.254Z,21.79
2022-09-06T19:39:23.592Z,21.80
2022-09-06T19:41:54.355Z,21.76
2022-09-06T19:44:22.842Z,21.74
2022-09-06T19:46:51.222Z,21.71
2022-09-06T19:49:20.523Z,21.65
2022-09-06T19:51:51.516Z,21.61
2022-09-06T19:54:19.854Z,21.54
2022-09-06T19:56:48.233Z,21.48
2022-09-06T19:59:17.885Z,21.44
2022-09-06T20:01:47.273Z,21.42
2022-09-06T20:04:16.045Z,21.44
2022-09-06T20:06:45.439Z,21.42
2022-09-06T20:09:15.972Z,21.35
2022-09-06T20:11:44.481Z,21.30
2022-09-06T20:14:13.734Z,21.29
2022-09-06T20:16:43.116Z,21.24
2022-09-06T20:19:13.055Z,21.20
2022-09-06T20:21:41.390Z,21.19
2022-09-06T20:24:09.899Z,21.22
2022-09-06T20:26:40.421Z,21.24
2022-09-06T20:29:08.608Z,21.27
2022-09-06T20:31:37.449Z,21.30
2022-09-06T20:34:06.560Z,21.29
2022-09-06T20:36:34.445Z,21.29
2022-09-06T20:39:02.929Z,21.30
2022-09-06T20:41:31.161Z,21.28
2022-09-06T20:44:01.344Z,21.29
2022-09-06T20:46:31.080Z,21.31
2022-09-06T20:49:02.004Z,21.31
2022-09-06T20:51:30.359Z,21.33
2022-09-06T20:53:59.378Z,21.35
2022-09-06T20:56:28.966Z,21.33
2022-09-06T20:58:59.410Z,21.33
2022-09-06T21:01:30.311Z,21.30
2022-09-06T21:03:59.598Z,21.30
2022-09-06T21:06:28.936Z,21.29
2022-09-06T21:08:57.058Z,21.27
2022-09-06T21:11:25.265Z,21.23
2022-09-06T21:13:55.849Z,21.23
2022-09-06T21:16:25.243Z,21.22
2022-09-06T21:18:58.373Z,21.22
2022-09-06T21:21:26.938Z,21.23
2022-09-06T21:23:55.112Z,21.23
2022-09-06T21:26:23.462Z,21.23
2022-09-06T21:28:51.606Z,21.24
2022-09-06T21:31:22.063Z,21.19
2022-09-06T21:33:52.581Z,21.14
2022-09-06T21:36:23.305Z,21.09
2022-09-06T21:38:53.769Z,21.08
2022-09-06T21:41:21.994Z,20.97
2022-09-06T21:43:53.136Z,20.94
2022-09-06T21:46:22.461Z,20.88
2022-09-06T21:48:51.810Z,20.86
2022-09-06T21:51:24.578Z,20.82
2022-09-06T21:53:53.492Z,20.79
2022-09-06T21:56:23.867Z,20.75
2022-09-06T21:58:52.820Z,20.76
2022-09-06T22:01:20.889Z,20.77
2022-09-06T22:03:48.836Z,20.76
2022-09-06T22:06:19.477Z,20.77
2022-09-06T22:08:49.455Z,20.74
2022-09-06T22:11:19.117Z,20.76
2022-09-06T22:13:47.932Z,20.78
2022-09-06T22:16:17.938Z,20.78
2022-09-06T22:18:46.197Z,20.78
2022-09-06T22:21:18.514Z,20.80
2022-09-06T22:23:52.748Z,20.79
2022-09-06T22:26:21.430Z,20.79
2022-09-06T22:28:49.378Z,20.78
2022-09-06T22:31:17.353Z,20.73
2022-09-06T22:33:45.646Z,20.72
2022-09-06T22:36:13.635Z,20.72
2022-09-06T22:38:41.615Z,20.65
2022-09-06T22:41:11.349Z,20.63
2022-09-06T22:43:39.262Z,20.66
2022-09-06T22:46:08.849Z,20.63
2022-09-06T22:48:37.406Z,20.64
2022-09-06T22:51:06.185Z,20.60
2022-09-06T22:53:36.069Z,20.57
2022-09-06T22:56:05.085Z,20.56
2022-09-06T22:58:34.713Z,20.54
2022-09-06T23:01:08.281Z,20.56
2022-09-06T23:03:36.944Z,20.58
2022-09-06T23:06:05.474Z,20.61
2022-09-06T23:08:33.786Z,20.65
2022-09-06T23:11:05.703Z,20.63
2022-09-06T23:13:35.154Z,20.65
2022-09-06T23:16:04.895Z,20.66
2022-09-06T23:18:33.390Z,20.66
2022-09-06T23:21:05.742Z,20.71
2022-09-06T23:23:33.849Z,20.70
2022-09-06T23:26:06.601Z,20.69
2022-09-06T23:28:36.456Z,20.65
2022-09-06T23:31:05.213Z,20.60
2022-09-06T23:33:35.147Z,20.59
2022-09-06T23:36:03.908Z,20.58
2022-09-06T23:38:33.603Z,20.57
2022-09-06T23:41:01.916Z,20.56
2022-09-06T23:43:30.232Z,20.57
2022-09-06T23:46:00.441Z,20.59
2022-09-06T23:48:28.726Z,20.63
2022-09-06T23:50:56.666Z,20.64
2022-09-06T23:53:24.741Z,20.67
2022-09-06T23:55:52.804Z,20.64
2022-09-06T23:58:21.309Z,20.66
